sensor_id;sensor_type;location;lat;lon;timestamp;temperature;humidity
23717;DHT22;22094;52.130;5.598;2024-02-21T00:02:10;8.90;1.00
23717;DHT22;22094;52.130;5.598;2024-02-21T00:04:43;9.80;1.00
23717;DHT22;22094;52.130;5.598;2024-02-21T00:07:29;9.50;1.00
23717;DHT22;22094;52.130;5.598;2024-02-21T00:09:57;10.20;1.00
23717;DHT22;22094;52.130;5.598;2024-02-21T00:12:32;10.50;1.00
23717;DHT22;22094;52.130;5.598;2024-02-21T00:15:00;9.50;1.00
23717;DHT22;22094;52.130;5.598;2024-02-21T00:17:29;10.10;1.00
23717;DHT22;22094;52.130;5.598;2024-02-21T00:19:55;10.40;1.00
23717;DHT22;22094;52.130;5.598;2024-02-21T00:22:20;9.90;1.00
23717;DHT22;22094;52.130;5.598;2024-02-21T00:24:49;10.10;1.00
23717;DHT22;22094;52.130;5.598;2024-02-21T00:27:17;9.00;1.00
23717;DHT22;22094;52.130;5.598;2024-02-21T00:29:49;9.70;1.00
23717;DHT22;22094;52.130;5.598;2024-02-21T00:32:17;10.20;99.90
23717;DHT22;22094;52.130;5.598;2024-02-21T00:34:50;9.20;1.00
23717;DHT22;22094;52.130;5.598;2024-02-21T00:37:19;10.30;1.00
23717;DHT22;22094;52.130;5.598;2024-02-21T00:39:48;10.40;20.40
23717;DHT22;22094;52.130;5.598;2024-02-21T00:42:13;10.50;1.00
23717;DHT22;22094;52.130;5.598;2024-02-21T00:44:42;10.10;1.00
23717;DHT22;22094;52.130;5.598;2024-02-21T00:47:08;9.50;1.00
23717;DHT22;22094;52.130;5.598;2024-02-21T00:49:37;9.50;1.00
23717;DHT22;22094;52.130;5.598;2024-02-21T00:52:02;9.50;1.00
23717;DHT22;22094;52.130;5.598;2024-02-21T00:54:33;10.10;1.00
23717;DHT22;22094;52.130;5.598;2024-02-21T00:57:36;9.90;97.90
23717;DHT22;22094;52.130;5.598;2024-02-21T01:00:08;10.50;76.20
23717;DHT22;22094;52.130;5.598;2024-02-21T01:02:34;9.30;99.90
23717;DHT22;22094;52.130;5.598;2024-02-21T01:05:00;9.40;1.00
23717;DHT22;22094;52.130;5.598;2024-02-21T01:07:34;9.90;1.00
23717;DHT22;22094;52.130;5.598;2024-02-21T01:10:02;9.40;1.00
23717;DHT22;22094;52.130;5.598;2024-02-21T01:12:28;9.40;1.00
23717;DHT22;22094;52.130;5.598;2024-02-21T01:15:04;9.60;1.00
23717;DHT22;22094;52.130;5.598;2024-02-21T01:17:39;9.50;1.00
23717;DHT22;22094;52.130;5.598;2024-02-21T01:20:15;10.10;1.00
23717;DHT22;22094;52.130;5.598;2024-02-21T01:22:41;9.50;1.00
23717;DHT22;22094;52.130;5.598;2024-02-21T01:25:10;10.70;1.00
23717;DHT22;22094;52.130;5.598;2024-02-21T01:27:35;9.50;99.90
23717;DHT22;22094;52.130;5.598;2024-02-21T01:30:09;10.30;1.00
23717;DHT22;22094;52.130;5.598;2024-02-21T01:32:39;9.40;1.00
23717;DHT22;22094;52.130;5.598;2024-02-21T01:35:10;9.20;1.00
23717;DHT22;22094;52.130;5.598;2024-02-21T01:37:42;9.50;1.00
23717;DHT22;22094;52.130;5.598;2024-02-21T01:40:11;9.40;1.00
23717;DHT22;22094;52.130;5.598;2024-02-21T01:42:45;9.40;1.00
23717;DHT22;22094;52.130;5.598;2024-02-21T01:45:13;10.30;1.00
23717;DHT22;22094;52.130;5.598;2024-02-21T01:47:39;9.40;1.00
23717;DHT22;22094;52.130;5.598;2024-02-21T01:50:05;9.10;1.00
23717;DHT22;22094;52.130;5.598;2024-02-21T01:52:34;9.40;1.00
23717;DHT22;22094;52.130;5.598;2024-02-21T01:55:01;9.40;1.00
23717;DHT22;22094;52.130;5.598;2024-02-21T01:57:30;8.90;1.00
23717;DHT22;22094;52.130;5.598;2024-02-21T01:59:56;8.40;1.00
23717;DHT22;22094;52.130;5.598;2024-02-21T02:02:22;10.00;26.10
23717;DHT22;22094;52.130;5.598;2024-02-21T02:04:49;9.80;1.00
23717;DHT22;22094;52.130;5.598;2024-02-21T02:07:14;10.00;1.00
23717;DHT22;22094;52.130;5.598;2024-02-21T02:09:41;9.40;68.30
23717;DHT22;22094;52.130;5.598;2024-02-21T02:12:16;10.20;1.00
23717;DHT22;22094;52.130;5.598;2024-02-21T02:14:42;8.70;99.90
23717;DHT22;22094;52.130;5.598;2024-02-21T02:17:07;10.30;99.90
23717;DHT22;22094;52.130;5.598;2024-02-21T02:19:36;10.20;99.90
23717;DHT22;22094;52.130;5.598;2024-02-21T02:22:18;10.30;99.90
23717;DHT22;22094;52.130;5.598;2024-02-21T02:24:47;10.10;99.90
23717;DHT22;22094;52.130;5.598;2024-02-21T02:27:16;9.30;99.90
23717;DHT22;22094;52.130;5.598;2024-02-21T02:29:41;9.70;1.00
23717;DHT22;22094;52.130;5.598;2024-02-21T02:32:07;9.90;99.90
23717;DHT22;22094;52.130;5.598;2024-02-21T02:34:33;9.30;1.00
23717;DHT22;22094;52.130;5.598;2024-02-21T02:37:01;9.80;1.00
23717;DHT22;22094;52.130;5.598;2024-02-21T02:39:27;10.10;1.00
23717;DHT22;22094;52.130;5.598;2024-02-21T02:41:58;9.90;1.00
23717;DHT22;22094;52.130;5.598;2024-02-21T02:44:26;9.50;1.00
23717;DHT22;22094;52.130;5.598;2024-02-21T02:46:55;9.90;1.00
23717;DHT22;22094;52.130;5.598;2024-02-21T02:49:21;10.20;1.00
23717;DHT22;22094;52.130;5.598;2024-02-21T02:51:49;9.30;1.00
23717;DHT22;22094;52.130;5.598;2024-02-21T02:54:15;8.80;99.90
23717;DHT22;22094;52.130;5.598;2024-02-21T02:56:41;9.50;99.90
23717;DHT22;22094;52.130;5.598;2024-02-21T02:59:06;10.00;1.00
23717;DHT22;22094;52.130;5.598;2024-02-21T03:01:35;9.30;1.00
23717;DHT22;22094;52.130;5.598;2024-02-21T03:04:01;9.40;1.00
23717;DHT22;22094;52.130;5.598;2024-02-21T03:06:27;10.20;1.00
23717;DHT22;22094;52.130;5.598;2024-02-21T03:08:53;9.20;25.30
23717;DHT22;22094;52.130;5.598;2024-02-21T03:11:22;10.00;1.00
23717;DHT22;22094;52.130;5.598;2024-02-21T03:13:57;9.30;1.00
23717;DHT22;22094;52.130;5.598;2024-02-21T03:16:26;9.30;99.90
23717;DHT22;22094;52.130;5.598;2024-02-21T03:18:55;9.10;1.00
23717;DHT22;22094;52.130;5.598;2024-02-21T03:21:23;9.80;1.00
23717;DHT22;22094;52.130;5.598;2024-02-21T03:23:52;9.30;1.00
23717;DHT22;22094;52.130;5.598;2024-02-21T03:26:43;9.30;1.00
23717;DHT22;22094;52.130;5.598;2024-02-21T03:29:17;9.20;1.00
23717;DHT22;22094;52.130;5.598;2024-02-21T03:34:42;10.20;1.00
23717;DHT22;22094;52.130;5.598;2024-02-21T03:37:14;9.20;1.00
23717;DHT22;22094;52.130;5.598;2024-02-21T03:39:45;9.30;99.90
23717;DHT22;22094;52.130;5.598;2024-02-21T03:42:13;9.80;1.00
23717;DHT22;22094;52.130;5.598;2024-02-21T03:44:41;9.10;1.00
23717;DHT22;22094;52.130;5.598;2024-02-21T03:47:10;9.30;1.00
23717;DHT22;22094;52.130;5.598;2024-02-21T03:49:48;9.20;99.90
23717;DHT22;22094;52.130;5.598;2024-02-21T03:52:34;9.20;1.00
23717;DHT22;22094;52.130;5.598;2024-02-21T03:55:14;9.50;1.00
23717;DHT22;22094;52.130;5.598;2024-02-21T03:57:59;9.00;1.00
23717;DHT22;22094;52.130;5.598;2024-02-21T04:00:50;9.30;1.00
23717;DHT22;22094;52.130;5.598;2024-02-21T04:03:30;9.20;1.00
23717;DHT22;22094;52.130;5.598;2024-02-21T04:05:56;9.20;99.90
23717;DHT22;22094;52.130;5.598;2024-02-21T04:08:26;10.30;1.00
23717;DHT22;22094;52.130;5.598;2024-02-21T04:10:51;9.20;99.90
23717;DHT22;22094;52.130;5.598;2024-02-21T04:13:40;9.80;1.00
23717;DHT22;22094;52.130;5.598;2024-02-21T04:16:12;9.30;1.00
23717;DHT22;22094;52.130;5.598;2024-02-21T04:18:41;9.20;1.00
23717;DHT22;22094;52.130;5.598;2024-02-21T04:21:19;10.20;1.00
23717;DHT22;22094;52.130;5.598;2024-02-21T04:23:56;9.70;1.00
23717;DHT22;22094;52.130;5.598;2024-02-21T04:26:29;9.60;1.00
23717;DHT22;22094;52.130;5.598;2024-02-21T04:29:15;8.70;1.00
23717;DHT22;22094;52.130;5.598;2024-02-21T04:31:55;9.90;1.00
23717;DHT22;22094;52.130;5.598;2024-02-21T04:34:23;10.10;1.00
23717;DHT22;22094;52.130;5.598;2024-02-21T04:36:58;8.20;1.00
23717;DHT22;22094;52.130;5.598;2024-02-21T04:39:32;9.40;1.00
23717;DHT22;22094;52.130;5.598;2024-02-21T04:42:10;9.20;1.00
23717;DHT22;22094;52.130;5.598;2024-02-21T04:44:41;9.30;1.00
23717;DHT22;22094;52.130;5.598;2024-02-21T04:47:35;10.00;1.00
23717;DHT22;22094;52.130;5.598;2024-02-21T04:50:09;9.70;1.00
23717;DHT22;22094;52.130;5.598;2024-02-21T04:52:56;9.20;1.00
23717;DHT22;22094;52.130;5.598;2024-02-21T04:55:24;9.20;1.00
23717;DHT22;22094;52.130;5.598;2024-02-21T04:58:00;9.60;1.00
23717;DHT22;22094;52.130;5.598;2024-02-21T05:00:37;9.30;74.20
23717;DHT22;22094;52.130;5.598;2024-02-21T05:03:33;9.10;19.20
23717;DHT22;22094;52.130;5.598;2024-02-21T05:06:22;9.10;1.00
23717;DHT22;22094;52.130;5.598;2024-02-21T05:09:02;8.80;1.00
23717;DHT22;22094;52.130;5.598;2024-02-21T05:11:37;9.10;1.00
23717;DHT22;22094;52.130;5.598;2024-02-21T05:14:11;10.10;1.00
23717;DHT22;22094;52.130;5.598;2024-02-21T05:16:42;9.60;1.00
23717;DHT22;22094;52.130;5.598;2024-02-21T05:19:13;8.90;1.00
23717;DHT22;22094;52.130;5.598;2024-02-21T05:21:38;8.50;1.00
23717;DHT22;22094;52.130;5.598;2024-02-21T05:27:13;9.10;1.00
23717;DHT22;22094;52.130;5.598;2024-02-21T05:29:41;10.10;99.90
23717;DHT22;22094;52.130;5.598;2024-02-21T05:32:32;9.80;1.00
23717;DHT22;22094;52.130;5.598;2024-02-21T05:35:10;9.10;1.00
23717;DHT22;22094;52.130;5.598;2024-02-21T05:37:44;9.90;1.00
23717;DHT22;22094;52.130;5.598;2024-02-21T05:40:23;9.90;1.00
23717;DHT22;22094;52.130;5.598;2024-02-21T05:42:57;9.00;1.00
23717;DHT22;22094;52.130;5.598;2024-02-21T05:45:28;8.60;1.00
23717;DHT22;22094;52.130;5.598;2024-02-21T05:48:03;10.20;1.00
23717;DHT22;22094;52.130;5.598;2024-02-21T05:50:36;9.00;71.30
23717;DHT22;22094;52.130;5.598;2024-02-21T05:53:07;9.00;1.00
23717;DHT22;22094;52.130;5.598;2024-02-21T05:55:46;10.00;99.90
23717;DHT22;22094;52.130;5.598;2024-02-21T05:58:36;8.60;1.00
23717;DHT22;22094;52.130;5.598;2024-02-21T06:01:40;8.60;99.90
23717;DHT22;22094;52.130;5.598;2024-02-21T06:07:10;9.00;99.90
23717;DHT22;22094;52.130;5.598;2024-02-21T06:10:02;9.00;99.90
23717;DHT22;22094;52.130;5.598;2024-02-21T06:21:29;8.90;1.00
23717;DHT22;22094;52.130;5.598;2024-02-21T06:24:20;8.90;1.00
23717;DHT22;22094;52.130;5.598;2024-02-21T06:30:22;8.30;99.90
23717;DHT22;22094;52.130;5.598;2024-02-21T06:33:09;8.80;99.90
23717;DHT22;22094;52.130;5.598;2024-02-21T06:36:22;8.80;50.60
23717;DHT22;22094;52.130;5.598;2024-02-21T06:38:55;8.90;99.90
23717;DHT22;22094;52.130;5.598;2024-02-21T06:41:24;8.80;99.90
23717;DHT22;22094;52.130;5.598;2024-02-21T06:43:49;8.50;99.90
23717;DHT22;22094;52.130;5.598;2024-02-21T06:46:32;9.60;99.90
23717;DHT22;22094;52.130;5.598;2024-02-21T06:49:02;9.10;99.90
23717;DHT22;22094;52.130;5.598;2024-02-21T06:51:29;9.40;99.90
23717;DHT22;22094;52.130;5.598;2024-02-21T06:53:55;9.50;99.90
23717;DHT22;22094;52.130;5.598;2024-02-21T06:56:23;9.30;99.90
23717;DHT22;22094;52.130;5.598;2024-02-21T06:58:56;9.40;99.90
23717;DHT22;22094;52.130;5.598;2024-02-21T07:01:34;8.50;1.00
23717;DHT22;22094;52.130;5.598;2024-02-21T07:07:21;9.10;99.90
23717;DHT22;22094;52.130;5.598;2024-02-21T07:10:28;8.60;99.90
23717;DHT22;22094;52.130;5.598;2024-02-21T07:13:21;8.80;1.00
23717;DHT22;22094;52.130;5.598;2024-02-21T07:18:46;8.90;1.00
23717;DHT22;22094;52.130;5.598;2024-02-21T07:21:14;9.20;1.00
23717;DHT22;22094;52.130;5.598;2024-02-21T07:26:56;9.00;1.00
23717;DHT22;22094;52.130;5.598;2024-02-21T07:35:43;8.90;99.90
23717;DHT22;22094;52.130;5.598;2024-02-21T07:38:37;8.90;99.90
23717;DHT22;22094;52.130;5.598;2024-02-21T07:44:01;9.50;99.90
23717;DHT22;22094;52.130;5.598;2024-02-21T07:50:10;9.00;1.00
23717;DHT22;22094;52.130;5.598;2024-02-21T07:56:13;9.10;1.00
23717;DHT22;22094;52.130;5.598;2024-02-21T08:23:01;9.40;5.80
23717;DHT22;22094;52.130;5.598;2024-02-21T08:28:17;9.50;99.90
23717;DHT22;22094;52.130;5.598;2024-02-21T08:30:52;9.50;99.90
23717;DHT22;22094;52.130;5.598;2024-02-21T08:33:28;9.50;1.00
23717;DHT22;22094;52.130;5.598;2024-02-21T08:42:04;9.60;99.90
23717;DHT22;22094;52.130;5.598;2024-02-21T09:29:50;9.90;1.00
23717;DHT22;22094;52.130;5.598;2024-02-21T09:36:42;10.10;1.00
23717;DHT22;22094;52.130;5.598;2024-02-21T11:21:38;10.80;99.90
23717;DHT22;22094;52.130;5.598;2024-02-21T11:52:11;9.80;99.90
23717;DHT22;22094;52.130;5.598;2024-02-21T11:55:18;9.80;1.00
23717;DHT22;22094;52.130;5.598;2024-02-21T12:01:15;9.90;99.90
23717;DHT22;22094;52.130;5.598;2024-02-21T12:03:43;9.90;1.00
23717;DHT22;22094;52.130;5.598;2024-02-21T12:09:50;9.90;30.90
23717;DHT22;22094;52.130;5.598;2024-02-21T12:15:21;10.40;1.00
23717;DHT22;22094;52.130;5.598;2024-02-21T13:35:16;11.20;1.00
23717;DHT22;22094;52.130;5.598;2024-02-21T13:41:26;11.80;43.00
23717;DHT22;22094;52.130;5.598;2024-02-21T13:54:05;10.90;99.90
23717;DHT22;22094;52.130;5.598;2024-02-21T15:16:24;10.20;1.00
23717;DHT22;22094;52.130;5.598;2024-02-21T15:19:09;10.20;1.00
23717;DHT22;22094;52.130;5.598;2024-02-21T15:21:54;10.00;99.90
23717;DHT22;22094;52.130;5.598;2024-02-21T15:24:20;10.90;1.00
23717;DHT22;22094;52.130;5.598;2024-02-21T15:26:46;9.70;1.00
23717;DHT22;22094;52.130;5.598;2024-02-21T15:29:12;9.90;99.90
23717;DHT22;22094;52.130;5.598;2024-02-21T15:31:37;10.20;1.00
23717;DHT22;22094;52.130;5.598;2024-02-21T15:34:03;9.50;99.90
23717;DHT22;22094;52.130;5.598;2024-02-21T15:36:28;9.60;1.00
23717;DHT22;22094;52.130;5.598;2024-02-21T15:38:54;10.00;99.90
23717;DHT22;22094;52.130;5.598;2024-02-21T15:41:20;9.90;99.90
23717;DHT22;22094;52.130;5.598;2024-02-21T15:44:02;9.80;1.00
23717;DHT22;22094;52.130;5.598;2024-02-21T15:46:29;9.30;99.90
23717;DHT22;22094;52.130;5.598;2024-02-21T15:48:56;9.60;1.00
23717;DHT22;22094;52.130;5.598;2024-02-21T15:51:22;10.10;1.00
23717;DHT22;22094;52.130;5.598;2024-02-21T15:53:49;10.00;11.00
23717;DHT22;22094;52.130;5.598;2024-02-21T15:56:14;9.90;99.90
23717;DHT22;22094;52.130;5.598;2024-02-21T15:58:40;9.30;99.90
23717;DHT22;22094;52.130;5.598;2024-02-21T16:01:06;9.20;99.90
23717;DHT22;22094;52.130;5.598;2024-02-21T16:03:32;9.00;99.90
23717;DHT22;22094;52.130;5.598;2024-02-21T16:05:58;9.30;99.90
23717;DHT22;22094;52.130;5.598;2024-02-21T16:08:23;9.60;99.90
23717;DHT22;22094;52.130;5.598;2024-02-21T16:10:49;9.30;99.90
23717;DHT22;22094;52.130;5.598;2024-02-21T16:13:16;10.00;99.90
23717;DHT22;22094;52.130;5.598;2024-02-21T16:15:42;9.70;99.90
23717;DHT22;22094;52.130;5.598;2024-02-21T16:18:08;9.00;99.90
23717;DHT22;22094;52.130;5.598;2024-02-21T16:20:34;8.90;99.90
23717;DHT22;22094;52.130;5.598;2024-02-21T16:23:00;9.10;99.90
23717;DHT22;22094;52.130;5.598;2024-02-21T16:25:29;9.50;1.00
23717;DHT22;22094;52.130;5.598;2024-02-21T16:27:54;9.70;1.00
23717;DHT22;22094;52.130;5.598;2024-02-21T16:30:20;9.60;1.00
23717;DHT22;22094;52.130;5.598;2024-02-21T16:32:48;9.00;1.00
23717;DHT22;22094;52.130;5.598;2024-02-21T16:35:14;10.20;1.00
23717;DHT22;22094;52.130;5.598;2024-02-21T16:37:40;8.90;1.00
23717;DHT22;22094;52.130;5.598;2024-02-21T16:40:06;8.90;1.00
23717;DHT22;22094;52.130;5.598;2024-02-21T16:42:32;8.90;1.00
23717;DHT22;22094;52.130;5.598;2024-02-21T16:44:57;9.10;1.00
23717;DHT22;22094;52.130;5.598;2024-02-21T16:47:24;9.00;1.00
23717;DHT22;22094;52.130;5.598;2024-02-21T16:49:50;8.90;1.00
23717;DHT22;22094;52.130;5.598;2024-02-21T16:52:16;9.30;1.00
23717;DHT22;22094;52.130;5.598;2024-02-21T16:54:41;9.50;1.00
23717;DHT22;22094;52.130;5.598;2024-02-21T16:57:07;9.30;1.00
23717;DHT22;22094;52.130;5.598;2024-02-21T16:59:34;8.80;1.00
23717;DHT22;22094;52.130;5.598;2024-02-21T17:02:02;9.60;1.00
23717;DHT22;22094;52.130;5.598;2024-02-21T17:04:29;8.70;1.00
23717;DHT22;22094;52.130;5.598;2024-02-21T17:06:55;8.80;1.00
23717;DHT22;22094;52.130;5.598;2024-02-21T17:09:21;9.20;1.00
23717;DHT22;22094;52.130;5.598;2024-02-21T17:11:47;9.40;1.00
23717;DHT22;22094;52.130;5.598;2024-02-21T17:14:13;9.00;1.00
23717;DHT22;22094;52.130;5.598;2024-02-21T17:16:38;8.80;1.00
23717;DHT22;22094;52.130;5.598;2024-02-21T17:19:04;9.00;1.00
23717;DHT22;22094;52.130;5.598;2024-02-21T17:21:32;8.90;1.00
23717;DHT22;22094;52.130;5.598;2024-02-21T17:23:58;9.30;1.00
23717;DHT22;22094;52.130;5.598;2024-02-21T17:26:24;9.40;1.00
23717;DHT22;22094;52.130;5.598;2024-02-21T17:28:52;9.50;1.00
23717;DHT22;22094;52.130;5.598;2024-02-21T17:31:20;8.70;1.00
23717;DHT22;22094;52.130;5.598;2024-02-21T17:33:45;9.60;1.00
23717;DHT22;22094;52.130;5.598;2024-02-21T17:36:11;9.10;1.00
23717;DHT22;22094;52.130;5.598;2024-02-21T17:38:37;9.40;1.00
23717;DHT22;22094;52.130;5.598;2024-02-21T17:41:03;9.70;1.00
23717;DHT22;22094;52.130;5.598;2024-02-21T17:43:28;8.70;1.00
23717;DHT22;22094;52.130;5.598;2024-02-21T17:46:00;8.80;1.00
23717;DHT22;22094;52.130;5.598;2024-02-21T17:48:25;9.30;1.00
23717;DHT22;22094;52.130;5.598;2024-02-21T17:50:52;8.90;1.00
23717;DHT22;22094;52.130;5.598;2024-02-21T17:53:18;9.40;1.00
23717;DHT22;22094;52.130;5.598;2024-02-21T17:55:43;8.70;1.00
23717;DHT22;22094;52.130;5.598;2024-02-21T17:58:09;9.40;1.00
23717;DHT22;22094;52.130;5.598;2024-02-21T18:00:35;9.50;1.00
23717;DHT22;22094;52.130;5.598;2024-02-21T18:03:01;8.20;1.00
23717;DHT22;22094;52.130;5.598;2024-02-21T18:05:28;9.40;1.00
23717;DHT22;22094;52.130;5.598;2024-02-21T18:07:54;9.20;1.00
23717;DHT22;22094;52.130;5.598;2024-02-21T18:10:20;9.60;1.00
23717;DHT22;22094;52.130;5.598;2024-02-21T18:12:47;9.50;1.00
23717;DHT22;22094;52.130;5.598;2024-02-21T18:15:12;9.40;1.00
23717;DHT22;22094;52.130;5.598;2024-02-21T18:17:38;8.70;1.00
23717;DHT22;22094;52.130;5.598;2024-02-21T18:20:06;9.40;1.00
23717;DHT22;22094;52.130;5.598;2024-02-21T18:22:35;8.60;1.00
23717;DHT22;22094;52.130;5.598;2024-02-21T18:25:00;8.50;1.00
23717;DHT22;22094;52.130;5.598;2024-02-21T18:27:27;9.30;1.00
23717;DHT22;22094;52.130;5.598;2024-02-21T18:29:53;9.00;1.00
23717;DHT22;22094;52.130;5.598;2024-02-21T18:32:19;8.50;1.00
23717;DHT22;22094;52.130;5.598;2024-02-21T18:34:45;8.60;1.00
23717;DHT22;22094;52.130;5.598;2024-02-21T18:37:11;8.60;2.00
23717;DHT22;22094;52.130;5.598;2024-02-21T18:39:41;8.60;2.50
23717;DHT22;22094;52.130;5.598;2024-02-21T18:42:06;9.10;3.80
23717;DHT22;22094;52.130;5.598;2024-02-21T18:44:33;8.90;10.70
23717;DHT22;22094;52.130;5.598;2024-02-21T18:46:58;8.60;17.40
23717;DHT22;22094;52.130;5.598;2024-02-21T18:49:25;9.10;10.40
23717;DHT22;22094;52.130;5.598;2024-02-21T18:51:51;9.40;3.90
23717;DHT22;22094;52.130;5.598;2024-02-21T18:54:16;8.00;11.30
23717;DHT22;22094;52.130;5.598;2024-02-21T18:56:46;9.30;4.80
23717;DHT22;22094;52.130;5.598;2024-02-21T18:59:12;9.30;2.40
23717;DHT22;22094;52.130;5.598;2024-02-21T19:01:37;9.30;1.00
23717;DHT22;22094;52.130;5.598;2024-02-21T19:04:03;8.90;6.30
23717;DHT22;22094;52.130;5.598;2024-02-21T19:06:29;8.90;1.00
23717;DHT22;22094;52.130;5.598;2024-02-21T19:08:54;9.20;1.00
23717;DHT22;22094;52.130;5.598;2024-02-21T19:11:22;9.50;1.00
23717;DHT22;22094;52.130;5.598;2024-02-21T19:13:48;9.70;8.50
23717;DHT22;22094;52.130;5.598;2024-02-21T19:16:14;9.30;12.10
23717;DHT22;22094;52.130;5.598;2024-02-21T19:18:40;9.40;18.40
23717;DHT22;22094;52.130;5.598;2024-02-21T19:21:06;9.50;18.40
23717;DHT22;22094;52.130;5.598;2024-02-21T19:23:34;9.80;21.00
23717;DHT22;22094;52.130;5.598;2024-02-21T19:26:00;9.30;36.10
23717;DHT22;22094;52.130;5.598;2024-02-21T19:28:25;9.30;39.10
23717;DHT22;22094;52.130;5.598;2024-02-21T19:30:51;10.00;34.60
23717;DHT22;22094;52.130;5.598;2024-02-21T19:33:20;8.20;47.30
23717;DHT22;22094;52.130;5.598;2024-02-21T19:35:45;8.50;45.20
23717;DHT22;22094;52.130;5.598;2024-02-21T19:38:11;9.30;64.20
23717;DHT22;22094;52.130;5.598;2024-02-21T19:40:37;8.80;71.20
23717;DHT22;22094;52.130;5.598;2024-02-21T19:43:03;9.30;78.70
23717;DHT22;22094;52.130;5.598;2024-02-21T19:45:29;8.80;78.20
23717;DHT22;22094;52.130;5.598;2024-02-21T19:47:55;9.10;79.10
23717;DHT22;22094;52.130;5.598;2024-02-21T19:50:21;9.80;88.90
23717;DHT22;22094;52.130;5.598;2024-02-21T19:52:48;8.80;94.00
23717;DHT22;22094;52.130;5.598;2024-02-21T19:55:17;8.80;98.60
23717;DHT22;22094;52.130;5.598;2024-02-21T19:57:43;8.80;97.30
23717;DHT22;22094;52.130;5.598;2024-02-21T20:00:09;8.80;99.90
23717;DHT22;22094;52.130;5.598;2024-02-21T20:02:34;8.80;99.90
23717;DHT22;22094;52.130;5.598;2024-02-21T20:05:00;8.90;99.90
23717;DHT22;22094;52.130;5.598;2024-02-21T20:07:26;8.90;99.90
23717;DHT22;22094;52.130;5.598;2024-02-21T20:09:52;8.90;99.90
23717;DHT22;22094;52.130;5.598;2024-02-21T20:12:18;9.10;99.90
23717;DHT22;22094;52.130;5.598;2024-02-21T20:14:45;8.90;99.90
23717;DHT22;22094;52.130;5.598;2024-02-21T20:17:11;9.60;99.90
23717;DHT22;22094;52.130;5.598;2024-02-21T20:19:36;9.70;99.90
23717;DHT22;22094;52.130;5.598;2024-02-21T20:22:04;9.60;99.90
23717;DHT22;22094;52.130;5.598;2024-02-21T20:24:31;9.50;99.90
23717;DHT22;22094;52.130;5.598;2024-02-21T20:26:57;8.90;99.90
23717;DHT22;22094;52.130;5.598;2024-02-21T20:29:22;9.70;99.90
23717;DHT22;22094;52.130;5.598;2024-02-21T20:31:48;9.80;99.90
23717;DHT22;22094;52.130;5.598;2024-02-21T20:34:14;10.10;99.90
23717;DHT22;22094;52.130;5.598;2024-02-21T20:36:41;9.00;99.90
23717;DHT22;22094;52.130;5.598;2024-02-21T20:39:11;9.00;99.90
23717;DHT22;22094;52.130;5.598;2024-02-21T20:41:37;9.00;99.90
23717;DHT22;22094;52.130;5.598;2024-02-21T20:44:08;9.10;99.90
23717;DHT22;22094;52.130;5.598;2024-02-21T20:46:34;9.00;99.90
23717;DHT22;22094;52.130;5.598;2024-02-21T20:49:00;9.50;99.90
23717;DHT22;22094;52.130;5.598;2024-02-21T20:51:38;9.70;99.90
23717;DHT22;22094;52.130;5.598;2024-02-21T20:57:03;9.10;99.90
23717;DHT22;22094;52.130;5.598;2024-02-21T20:59:28;9.00;99.90
23717;DHT22;22094;52.130;5.598;2024-02-21T21:01:54;8.60;99.90
23717;DHT22;22094;52.130;5.598;2024-02-21T21:04:20;9.20;99.90
23717;DHT22;22094;52.130;5.598;2024-02-21T21:06:46;9.60;99.90
23717;DHT22;22094;52.130;5.598;2024-02-21T21:09:12;8.80;99.90
23717;DHT22;22094;52.130;5.598;2024-02-21T21:11:37;9.00;99.90
23717;DHT22;22094;52.130;5.598;2024-02-21T21:14:05;8.70;99.90
23717;DHT22;22094;52.130;5.598;2024-02-21T21:16:34;9.60;99.90
23717;DHT22;22094;52.130;5.598;2024-02-21T21:19:00;9.70;99.90
23717;DHT22;22094;52.130;5.598;2024-02-21T21:21:25;10.40;99.90
23717;DHT22;22094;52.130;5.598;2024-02-21T21:23:54;9.80;99.90
23717;DHT22;22094;52.130;5.598;2024-02-21T21:26:20;9.90;99.90
23717;DHT22;22094;52.130;5.598;2024-02-21T21:28:46;9.10;99.90
23717;DHT22;22094;52.130;5.598;2024-02-21T21:31:12;9.10;99.90
23717;DHT22;22094;52.130;5.598;2024-02-21T21:33:48;9.60;99.90
23717;DHT22;22094;52.130;5.598;2024-02-21T21:36:14;9.60;99.90
23717;DHT22;22094;52.130;5.598;2024-02-21T21:38:39;9.50;99.90
23717;DHT22;22094;52.130;5.598;2024-02-21T21:41:05;9.80;99.90
23717;DHT22;22094;52.130;5.598;2024-02-21T21:43:34;10.10;99.90
23717;DHT22;22094;52.130;5.598;2024-02-21T21:46:22;8.60;99.90
23717;DHT22;22094;52.130;5.598;2024-02-21T21:48:57;9.40;99.90
23717;DHT22;22094;52.130;5.598;2024-02-21T21:51:41;8.90;99.90
23717;DHT22;22094;52.130;5.598;2024-02-21T21:54:07;9.80;99.90
23717;DHT22;22094;52.130;5.598;2024-02-21T21:56:38;9.30;99.90
23717;DHT22;22094;52.130;5.598;2024-02-21T21:59:11;10.10;99.90
23717;DHT22;22094;52.130;5.598;2024-02-21T22:01:37;9.50;99.90
23717;DHT22;22094;52.130;5.598;2024-02-21T22:04:11;10.30;99.90
23717;DHT22;22094;52.130;5.598;2024-02-21T22:06:38;9.30;99.90
23717;DHT22;22094;52.130;5.598;2024-02-21T22:09:08;8.60;99.90
23717;DHT22;22094;52.130;5.598;2024-02-21T22:11:34;9.30;99.90
23717;DHT22;22094;52.130;5.598;2024-02-21T22:14:00;10.30;99.90
23717;DHT22;22094;52.130;5.598;2024-02-21T22:16:26;9.40;99.90
23717;DHT22;22094;52.130;5.598;2024-02-21T22:19:20;9.80;99.90
23717;DHT22;22094;52.130;5.598;2024-02-21T22:21:46;9.40;99.90
23717;DHT22;22094;52.130;5.598;2024-02-21T22:24:15;9.40;99.90
23717;DHT22;22094;52.130;5.598;2024-02-21T22:26:48;9.40;99.90
23717;DHT22;22094;52.130;5.598;2024-02-21T22:29:25;9.90;99.90
23717;DHT22;22094;52.130;5.598;2024-02-21T22:31:57;9.40;99.90
23717;DHT22;22094;52.130;5.598;2024-02-21T22:34:26;9.90;99.90
23717;DHT22;22094;52.130;5.598;2024-02-21T22:36:59;9.80;99.90
23717;DHT22;22094;52.130;5.598;2024-02-21T22:39:24;8.90;99.90
23717;DHT22;22094;52.130;5.598;2024-02-21T22:41:53;10.00;99.90
23717;DHT22;22094;52.130;5.598;2024-02-21T22:44:22;9.60;99.90
23717;DHT22;22094;52.130;5.598;2024-02-21T22:47:06;9.30;99.90
23717;DHT22;22094;52.130;5.598;2024-02-21T22:49:32;9.50;99.90
23717;DHT22;22094;52.130;5.598;2024-02-21T22:51:58;9.10;99.90
23717;DHT22;22094;52.130;5.598;2024-02-21T22:54:23;9.60;99.90
23717;DHT22;22094;52.130;5.598;2024-02-21T22:56:50;9.20;99.90
23717;DHT22;22094;52.130;5.598;2024-02-21T22:59:16;10.00;99.90
23717;DHT22;22094;52.130;5.598;2024-02-21T23:01:42;10.40;99.90
23717;DHT22;22094;52.130;5.598;2024-02-21T23:04:11;11.20;99.90
23717;DHT22;22094;52.130;5.598;2024-02-21T23:06:37;9.60;99.90
23717;DHT22;22094;52.130;5.598;2024-02-21T23:09:05;10.10;99.90
23717;DHT22;22094;52.130;5.598;2024-02-21T23:11:31;10.50;99.90
23717;DHT22;22094;52.130;5.598;2024-02-21T23:13:56;10.60;99.90
23717;DHT22;22094;52.130;5.598;2024-02-21T23:16:22;10.40;99.90
23717;DHT22;22094;52.130;5.598;2024-02-21T23:18:48;9.80;99.90
23717;DHT22;22094;52.130;5.598;2024-02-21T23:21:13;10.70;99.90
23717;DHT22;22094;52.130;5.598;2024-02-21T23:23:39;9.80;99.90
23717;DHT22;22094;52.130;5.598;2024-02-21T23:26:05;10.20;99.90
23717;DHT22;22094;52.130;5.598;2024-02-21T23:28:30;10.40;99.90
23717;DHT22;22094;52.130;5.598;2024-02-21T23:30:57;10.90;99.90
23717;DHT22;22094;52.130;5.598;2024-02-21T23:33:22;9.60;99.90
23717;DHT22;22094;52.130;5.598;2024-02-21T23:35:48;10.60;99.90